Time;durP1;ratioP1;P1;durP2;ratioP2;P2;SDS_P1;SDS_P2;PMS_P1;PMS_P2;Temp;Humidity;BMP_temperature;BMP_pressure;BME280_temperature;BME280_humidity;BME280_pressure;Samples;Min_cycle;Max_cycle;Signal;HPM_P1;HPM_P2
2022/01/02 00:01:20;;;;;;;11.52;5.85;;;;;;;11.60;100.00;101660.25;5017134;28;20052;-71
2022/01/02 00:03:53;;;;;;;10.50;5.47;;;;;;;11.59;100.00;101655.91;5013120;28;20095;-71
2022/01/02 00:06:23;;;;;;;9.57;5.60;;;;;;;11.61;100.00;101659.16;5016671;28;20065;-72
2022/01/02 00:08:55;;;;;;;9.80;5.68;;;;;;;11.55;100.00;101652.94;5017320;28;20085;-72
2022/01/02 00:11:24;;;;;;;12.65;5.13;;;;;;;11.65;100.00;101668.41;5016827;28;20144;-72
2022/01/02 00:13:55;;;;;;;14.45;6.20;;;;;;;11.48;100.00;101662.59;5017319;28;20107;-72
2022/01/02 00:16:21;;;;;;;7.63;5.35;;;;;;;11.65;100.00;101657.47;5015411;28;20053;-73
2022/01/02 00:19:02;;;;;;;9.55;5.68;;;;;;;11.59;100.00;101655.09;5014557;28;20056;-71
2022/01/02 00:21:29;;;;;;;10.35;5.50;;;;;;;11.60;100.00;101667.63;5015437;28;21082;-71
2022/01/02 00:24:01;;;;;;;7.65;5.18;;;;;;;11.60;100.00;101681.31;5015236;28;20387;-72
2022/01/02 00:26:35;;;;;;;10.90;6.00;;;;;;;11.70;100.00;101690.22;5016700;28;20052;-71
2022/01/02 00:29:06;;;;;;;10.05;5.35;;;;;;;11.66;100.00;101691.06;5014725;28;20048;-71
2022/01/02 00:31:32;;;;;;;9.68;5.40;;;;;;;11.71;100.00;101707.41;5017296;28;20410;-72
2022/01/02 00:33:59;;;;;;;9.88;5.07;;;;;;;11.67;100.00;101692.72;5014506;28;20044;-71
2022/01/02 00:36:26;;;;;;;10.73;6.00;;;;;;;11.62;100.00;101685.38;5015681;28;20049;-71
2022/01/02 00:38:51;;;;;;;8.40;5.93;;;;;;;11.52;100.00;101680.84;5016623;28;20372;-71
2022/01/02 00:41:26;;;;;;;13.02;6.70;;;;;;;11.47;100.00;101685.53;5015951;28;20042;-72
2022/01/02 00:44:07;;;;;;;9.75;6.80;;;;;;;11.37;100.00;101689.16;5015664;28;20041;-73
2022/01/02 00:46:40;;;;;;;13.98;7.13;;;;;;;11.33;100.00;101694.41;5016233;28;20085;-72
2022/01/02 00:49:08;;;;;;;11.88;6.78;;;;;;;11.38;100.00;101700.94;5014566;28;20785;-72
2022/01/02 00:51:43;;;;;;;14.68;6.03;;;;;;;11.38;100.00;101711.84;5015118;28;20045;-72
2022/01/02 00:54:14;;;;;;;12.45;6.95;;;;;;;11.46;100.00;101703.00;5013842;28;20057;-72
2022/01/02 00:56:43;;;;;;;11.10;6.43;;;;;;;11.46;100.00;101694.81;5016576;28;20045;-71
2022/01/02 00:59:36;;;;;;;17.15;6.35;;;;;;;11.49;100.00;101691.50;5023483;28;20602;-72
2022/01/02 01:02:04;;;;;;;10.13;5.65;;;;;;;11.40;100.00;101687.78;5031604;28;20048;-72
2022/01/02 01:04:32;;;;;;;9.13;5.85;;;;;;;11.50;100.00;101683.03;5033012;28;20045;-71
2022/01/02 01:07:05;;;;;;;11.85;5.60;;;;;;;11.46;100.00;101676.53;5033970;28;20432;-72
2022/01/02 01:09:31;;;;;;;14.00;5.90;;;;;;;11.41;100.00;101673.03;5015614;28;20500;-72
2022/01/02 01:11:59;;;;;;;12.00;6.15;;;;;;;11.39;100.00;101665.13;5016628;28;20044;-71
2022/01/02 01:14:25;;;;;;;10.90;5.82;;;;;;;11.45;100.00;101653.03;5035359;28;20037;-73
2022/01/02 01:16:52;;;;;;;14.55;6.45;;;;;;;11.39;100.00;101661.59;5033642;28;20037;-72
2022/01/02 01:19:22;;;;;;;18.00;6.45;;;;;;;11.49;100.00;101658.72;5034023;28;20033;-71
2022/01/02 01:21:49;;;;;;;10.50;6.18;;;;;;;11.41;100.00;101648.47;5034170;28;20524;-71
2022/01/02 01:24:17;;;;;;;15.63;6.97;;;;;;;11.27;100.00;101657.31;5033527;28;20131;-71
2022/01/02 01:26:46;;;;;;;16.02;8.05;;;;;;;11.33;100.00;101660.81;5033391;28;20047;-71
2022/01/02 01:29:11;;;;;;;16.20;8.30;;;;;;;11.24;100.00;101663.38;5033371;28;20048;-71
2022/01/02 01:31:36;;;;;;;13.30;6.90;;;;;;;11.31;100.00;101669.31;5035903;28;20070;-71
2022/01/02 01:34:02;;;;;;;10.55;6.40;;;;;;;11.23;100.00;101667.22;5033561;28;20045;-71
2022/01/02 01:36:27;;;;;;;11.10;6.72;;;;;;;11.19;100.00;101663.41;5016923;28;20037;-71
2022/01/02 01:38:53;;;;;;;16.63;7.45;;;;;;;11.28;100.00;101658.94;5033230;28;20059;-70
2022/01/02 01:41:28;;;;;;;13.75;7.18;;;;;;;11.16;100.00;101658.53;5033596;28;20120;-71
2022/01/02 01:44:27;;;;;;;17.13;7.05;;;;;;;11.12;100.00;101653.94;5035397;28;20037;-71
2022/01/02 01:46:55;;;;;;;15.05;6.75;;;;;;;11.08;100.00;101649.06;5033102;28;20332;-71
2022/01/02 01:49:26;;;;;;;14.07;6.57;;;;;;;11.04;100.00;101636.25;5024648;28;20037;-71
2022/01/02 01:51:54;;;;;;;19.50;8.48;;;;;;;11.05;100.00;101627.81;5014113;28;20033;-72
2022/01/02 01:54:22;;;;;;;17.45;7.72;;;;;;;11.14;100.00;101625.25;5033011;28;20190;-72
2022/01/02 01:56:49;;;;;;;15.32;7.88;;;;;;;11.15;100.00;101637.81;5034015;28;20040;-71
2022/01/02 01:59:16;;;;;;;15.02;8.80;;;;;;;11.19;100.00;101611.53;5033281;28;20778;-72
2022/01/02 02:01:42;;;;;;;18.27;9.50;;;;;;;11.20;100.00;101602.25;5031439;28;20091;-71
2022/01/02 02:04:07;;;;;;;27.23;10.30;;;;;;;11.17;100.00;101612.94;5012964;28;20038;-71
2022/01/02 02:06:35;;;;;;;21.10;9.80;;;;;;;11.23;100.00;101607.16;5013391;28;20394;-71
2022/01/02 02:09:02;;;;;;;23.77;9.63;;;;;;;11.12;100.00;101589.25;4995931;28;20052;-71
2022/01/02 02:11:28;;;;;;;19.60;8.55;;;;;;;11.12;100.00;101588.44;5014269;28;20457;-71
2022/01/02 02:13:55;;;;;;;18.40;8.13;;;;;;;11.10;100.00;101585.97;5014571;28;20029;-72
2022/01/02 02:16:22;;;;;;;14.75;7.97;;;;;;;11.12;100.00;101585.69;5013978;28;20041;-72
2022/01/02 02:18:48;;;;;;;24.67;8.20;;;;;;;11.13;100.00;101585.41;5012274;28;20087;-71
2022/01/02 02:21:16;;;;;;;17.30;7.47;;;;;;;11.12;100.00;101570.13;5012023;28;20656;-71
2022/01/02 02:23:45;;;;;;;14.07;7.35;;;;;;;11.18;100.00;101560.78;5012440;28;20148;-72
2022/01/02 02:26:10;;;;;;;15.27;7.45;;;;;;;11.11;100.00;101554.84;5013458;28;20626;-71
2022/01/02 02:28:36;;;;;;;16.08;6.97;;;;;;;11.13;100.00;101555.38;5014902;28;20045;-71
2022/01/02 02:31:01;;;;;;;16.27;7.18;;;;;;;11.07;100.00;101543.69;5012964;28;20042;-72
2022/01/02 02:33:27;;;;;;;27.05;7.95;;;;;;;11.18;100.00;101544.41;5015701;28;20075;-71
2022/01/02 02:35:54;;;;;;;17.88;6.15;;;;;;;11.25;100.00;101544.84;5017242;28;20509;-71
2022/01/02 02:38:20;;;;;;;19.60;6.80;;;;;;;11.28;100.00;101548.94;5016641;28;20037;-70
2022/01/02 02:40:49;;;;;;;21.58;6.00;;;;;;;11.28;100.00;101538.81;5016887;28;20123;-73
2022/01/02 02:43:31;;;;;;;15.82;6.38;;;;;;;11.25;100.00;101533.94;5016430;28;20785;-71
2022/01/02 02:54:21;;;;;;;14.80;6.32;;;;;;;11.30;100.00;101508.50;5019742;28;20317;-71
2022/01/02 02:59:20;;;;;;;22.95;5.97;;;;;;;11.43;100.00;101506.97;5020622;28;20037;-72
2022/01/02 03:01:45;;;;;;;18.25;6.68;;;;;;;11.40;100.00;101507.56;5019131;28;20127;-72
2022/01/02 03:04:11;;;;;;;12.38;5.75;;;;;;;11.44;100.00;101497.69;5037318;28;20072;-71
2022/01/02 03:06:36;;;;;;;19.17;5.93;;;;;;;11.56;100.00;101500.78;5040564;28;20033;-71
2022/01/02 03:09:09;;;;;;;21.08;7.07;;;;;;;11.48;100.00;101485.06;5039426;28;20036;-71
2022/01/02 03:11:41;;;;;;;15.88;6.57;;;;;;;11.64;100.00;101480.22;5037516;28;20418;-72
2022/01/02 03:14:12;;;;;;;16.40;6.32;;;;;;;11.61;100.00;101481.59;5035405;28;20036;-71
2022/01/02 03:16:39;;;;;;;21.05;7.65;;;;;;;11.62;100.00;101476.94;5034665;28;20140;-72
2022/01/02 03:19:05;;;;;;;14.98;6.18;;;;;;;11.62;100.00;101476.94;5034161;28;20122;-72
2022/01/02 03:21:31;;;;;;;18.92;6.68;;;;;;;11.68;100.00;101460.19;5031887;28;20394;-72
2022/01/02 03:23:56;;;;;;;20.67;7.18;;;;;;;11.71;100.00;101458.78;5032275;28;20037;-71
2022/01/02 03:26:22;;;;;;;23.13;7.57;;;;;;;11.68;100.00;101449.25;5031946;28;20366;-71
2022/01/02 03:28:47;;;;;;;21.25;8.52;;;;;;;11.72;100.00;101461.22;5031233;28;20095;-71
2022/01/02 03:31:13;;;;;;;20.52;7.25;;;;;;;11.62;100.00;101461.38;5033924;28;20414;-71
2022/01/02 03:33:39;;;;;;;18.50;6.47;;;;;;;11.60;100.00;101473.69;5033062;28;20045;-71
2022/01/02 03:36:06;;;;;;;15.00;6.47;;;;;;;11.54;100.00;101464.75;5033885;28;20079;-73
2022/01/02 03:38:31;;;;;;;18.05;6.60;;;;;;;11.60;100.00;101463.56;5033812;28;20350;-70
2022/01/02 03:40:57;;;;;;;15.93;6.82;;;;;;;11.42;100.00;101453.47;5033316;28;20043;-72
2022/01/02 03:43:23;;;;;;;17.83;7.07;;;;;;;11.57;100.00;101469.63;5030715;28;20482;-73
2022/01/02 03:45:49;;;;;;;22.23;7.28;;;;;;;11.42;100.00;101456.19;5030375;28;20045;-71
2022/01/02 03:48:15;;;;;;;17.05;7.07;;;;;;;11.40;100.00;101450.19;5030590;28;20049;-72
2022/01/02 03:50:41;;;;;;;20.38;9.07;;;;;;;11.49;100.00;101453.91;5012749;28;20044;-71
2022/01/02 03:53:07;;;;;;;20.05;8.20;;;;;;;11.47;100.00;101447.94;5021646;28;20532;-71
2022/01/02 03:55:33;;;;;;;17.38;7.78;;;;;;;11.48;100.00;101449.53;5030119;28;20111;-72
2022/01/02 03:57:59;;;;;;;17.33;7.70;;;;;;;11.57;100.00;101445.84;5032629;28;20052;-72
2022/01/02 04:00:24;;;;;;;17.05;6.78;;;;;;;11.69;100.00;101442.69;5031050;28;20029;-72
2022/01/02 04:02:50;;;;;;;26.65;8.63;;;;;;;11.73;100.00;101446.44;5032773;28;20052;-72
2022/01/02 04:05:16;;;;;;;16.58;7.03;;;;;;;11.71;100.00;101436.91;5030995;28;20037;-72
2022/01/02 04:07:44;;;;;;;14.63;6.18;;;;;;;11.81;100.00;101435.94;5014964;28;20048;-73
2022/01/02 04:10:12;;;;;;;17.20;6.43;;;;;;;11.67;100.00;101427.72;5015226;28;20500;-72
2022/01/02 04:12:38;;;;;;;17.20;6.47;;;;;;;11.75;100.00;101433.31;5015250;28;20036;-72
2022/01/02 04:15:07;;;;;;;18.73;7.20;;;;;;;11.81;100.00;101433.22;5033811;28;20052;-71
2022/01/02 04:17:33;;;;;;;18.92;7.47;;;;;;;11.73;100.00;101440.97;5031624;28;20037;-72
2022/01/02 04:20:00;;;;;;;26.30;9.38;;;;;;;11.66;100.00;101435.06;5031268;28;20037;-71
2022/01/02 04:22:26;;;;;;;19.17;8.77;;;;;;;11.61;100.00;101426.97;5031037;28;20485;-71
2022/01/02 04:24:51;;;;;;;15.00;6.47;;;;;;;11.55;100.00;101422.69;5031575;28;20072;-72
2022/01/02 04:27:18;;;;;;;18.88;5.75;;;;;;;11.47;100.00;101415.16;5031126;28;20052;-73
2022/01/02 04:29:44;;;;;;;14.60;6.20;;;;;;;11.59;100.00;101412.78;5031823;28;20040;-71
2022/01/02 04:32:11;;;;;;;13.55;6.35;;;;;;;11.53;100.00;101420.25;5031295;28;20037;-72
2022/01/02 04:34:36;;;;;;;21.65;7.07;;;;;;;11.52;100.00;101412.38;5033888;28;20033;-72
2022/01/02 04:37:04;;;;;;;19.75;5.93;;;;;;;11.57;100.00;101420.47;5034641;28;20041;-72
2022/01/02 04:39:30;;;;;;;20.65;6.18;;;;;;;11.52;100.00;101417.81;5035264;28;20043;-72
2022/01/02 04:41:56;;;;;;;18.48;6.03;;;;;;;11.51;100.00;101427.09;5036018;28;20044;-74
2022/01/02 04:44:21;;;;;;;16.25;6.20;;;;;;;11.59;100.00;101429.19;5035034;28;20033;-71
2022/01/02 04:46:47;;;;;;;15.82;6.43;;;;;;;11.49;100.00;101426.59;5034679;28;20056;-71
2022/01/02 04:49:14;;;;;;;17.50;6.78;;;;;;;11.53;100.00;101424.91;5009705;28;20228;-72
2022/01/02 04:51:40;;;;;;;13.70;6.43;;;;;;;11.43;100.00;101425.03;5014456;28;20068;-71
2022/01/02 04:54:06;;;;;;;13.52;7.28;;;;;;;11.41;100.00;101413.63;5033212;28;20065;-72
2022/01/02 04:56:31;;;;;;;16.17;6.70;;;;;;;11.29;100.00;101420.31;5035731;28;20127;-71
2022/01/02 04:58:56;;;;;;;14.68;8.15;;;;;;;11.42;100.00;101415.22;5034155;28;20040;-72
2022/01/02 05:01:22;;;;;;;16.58;7.60;;;;;;;11.44;100.00;101413.03;5033234;28;20036;-71
2022/01/02 05:03:48;;;;;;;22.10;8.02;;;;;;;11.45;100.00;101409.19;5033226;28;20152;-72
2022/01/02 05:06:14;;;;;;;21.50;7.35;;;;;;;11.32;100.00;101395.16;5033200;28;20063;-71
2022/01/02 05:08:44;;;;;;;25.33;8.23;;;;;;;11.39;100.00;101402.16;5033594;28;20309;-73
2022/01/02 05:11:09;;;;;;;25.20;8.77;;;;;;;11.43;100.00;101397.72;5033961;28;20041;-73
2022/01/02 05:13:35;;;;;;;17.77;7.80;;;;;;;11.50;100.00;101393.53;5033400;28;20130;-72
2022/01/02 05:16:01;;;;;;;21.98;7.25;;;;;;;11.49;100.00;101396.53;5033609;28;20118;-72
2022/01/02 05:18:27;;;;;;;16.08;6.07;;;;;;;11.44;100.00;101396.63;5017595;28;20083;-72
2022/01/02 05:20:52;;;;;;;18.17;6.20;;;;;;;11.61;100.00;101394.19;5034833;28;20045;-72
2022/01/02 05:23:20;;;;;;;18.13;6.35;;;;;;;11.42;100.00;101380.53;5034013;28;20488;-73
2022/01/02 05:25:45;;;;;;;17.83;6.10;;;;;;;11.50;100.00;101376.34;5035002;28;20052;-72
2022/01/02 05:28:11;;;;;;;17.27;6.30;;;;;;;11.49;100.00;101366.50;5032486;28;20033;-72
2022/01/02 05:30:38;;;;;;;19.80;6.72;;;;;;;11.48;100.00;101362.16;5032919;28;20544;-71
2022/01/02 05:33:04;;;;;;;18.38;6.10;;;;;;;11.42;100.00;101366.06;5032792;28;20473;-73
2022/01/02 05:35:31;;;;;;;14.85;6.43;;;;;;;11.44;100.00;101361.13;5034692;28;20045;-73
2022/01/02 05:37:57;;;;;;;16.33;7.50;;;;;;;11.43;100.00;101359.50;5033846;28;20894;-72
2022/01/02 05:40:24;;;;;;;23.23;10.45;;;;;;;11.48;100.00;101351.22;5016060;28;20040;-72
2022/01/02 05:42:50;;;;;;;21.40;9.40;;;;;;;11.44;100.00;101344.75;5016811;28;20037;-73
2022/01/02 05:45:15;;;;;;;20.73;7.80;;;;;;;11.35;100.00;101341.88;5031941;28;20072;-73
2022/01/02 05:47:41;;;;;;;15.68;7.70;;;;;;;11.35;100.00;101330.16;5034645;28;20469;-72
2022/01/02 05:50:07;;;;;;;15.93;6.55;;;;;;;11.30;100.00;101326.38;5017537;28;20033;-72
2022/01/02 05:52:33;;;;;;;16.30;6.30;;;;;;;11.30;100.00;101318.19;5020665;28;20120;-72
2022/01/02 05:54:59;;;;;;;22.55;6.60;;;;;;;11.32;100.00;101315.19;5032778;28;20098;-71
2022/01/02 05:57:25;;;;;;;16.73;6.50;;;;;;;11.33;100.00;101309.41;5015662;28;20037;-72
2022/01/02 05:59:50;;;;;;;20.13;7.47;;;;;;;11.30;100.00;101304.53;5032355;28;20036;-72
2022/01/02 06:02:16;;;;;;;16.48;6.22;;;;;;;11.23;100.00;101301.38;5028237;28;20540;-73
2022/01/02 06:04:42;;;;;;;24.02;7.05;;;;;;;11.26;100.00;101300.78;4995630;28;20045;-71
2022/01/02 06:07:08;;;;;;;23.73;7.15;;;;;;;11.24;100.00;101303.00;5012051;28;20638;-72
2022/01/02 06:09:34;;;;;;;18.10;6.50;;;;;;;11.17;100.00;101285.34;5013503;28;20509;-72
2022/01/02 06:12:00;;;;;;;22.95;6.90;;;;;;;11.22;100.00;101283.34;4995067;28;20038;-71
2022/01/02 06:14:25;;;;;;;11.45;5.90;;;;;;;11.20;100.00;101290.22;5013195;28;20041;-72
2022/01/02 06:16:51;;;;;;;15.40;6.88;;;;;;;11.13;100.00;101285.16;5013832;28;20041;-72
2022/01/02 06:19:16;;;;;;;16.17;6.60;;;;;;;11.18;100.00;101282.34;5012511;28;20472;-72
2022/01/02 06:21:42;;;;;;;18.20;6.78;;;;;;;11.25;100.00;101271.84;5012269;28;20049;-73
2022/01/02 06:24:07;;;;;;;17.10;6.10;;;;;;;11.25;100.00;101260.13;5011358;28;20045;-71
2022/01/02 06:26:33;;;;;;;16.48;6.47;;;;;;;11.15;100.00;101239.28;5012549;28;20043;-73
2022/01/02 06:29:02;;;;;;;16.00;6.00;;;;;;;11.19;100.00;101226.63;5010543;28;20042;-71
2022/01/02 06:31:29;;;;;;;19.92;6.95;;;;;;;11.24;100.00;101220.28;5011530;28;20041;-72
2022/01/02 06:33:55;;;;;;;16.80;6.93;;;;;;;11.25;100.00;101216.44;5012437;28;20045;-72
2022/01/02 06:36:21;;;;;;;15.10;5.93;;;;;;;11.30;100.00;101208.16;5011603;28;20646;-71
2022/01/02 06:38:46;;;;;;;17.85;6.13;;;;;;;11.28;100.00;101194.00;5013377;28;20041;-72
2022/01/02 06:41:12;;;;;;;17.02;6.60;;;;;;;11.28;100.00;101177.63;5013180;28;20413;-72
2022/01/02 06:43:39;;;;;;;24.23;6.50;;;;;;;11.28;100.00;101178.44;5012281;28;20055;-72
2022/01/02 06:46:06;;;;;;;14.68;5.70;;;;;;;11.27;100.00;101168.63;5011936;28;20040;-71
2022/01/02 06:48:32;;;;;;;18.83;6.68;;;;;;;11.29;100.00;101163.69;5015464;28;20236;-72
2022/01/02 06:50:57;;;;;;;18.33;6.97;;;;;;;11.28;100.00;101151.13;5031834;28;20055;-72
2022/01/02 06:53:24;;;;;;;21.70;7.13;;;;;;;11.31;100.00;101145.09;5031741;28;20041;-73
2022/01/02 06:55:50;;;;;;;15.02;6.90;;;;;;;11.15;100.00;101135.53;5030365;28;20125;-72
2022/01/02 06:58:16;;;;;;;14.38;6.43;;;;;;;11.11;100.00;101129.06;5032768;28;20041;-72
2022/01/02 07:00:43;;;;;;;21.77;7.20;;;;;;;11.19;100.00;101112.00;5015006;28;20132;-73
2022/01/02 07:03:09;;;;;;;19.42;7.22;;;;;;;11.20;100.00;101110.91;5031913;28;20044;-72
2022/01/02 07:05:35;;;;;;;20.73;7.53;;;;;;;11.21;100.00;101092.59;5031943;28;20644;-72
2022/01/02 07:08:00;;;;;;;21.58;8.00;;;;;;;11.13;100.00;101102.28;5015804;28;20047;-71
2022/01/02 07:10:28;;;;;;;16.58;7.32;;;;;;;11.13;100.00;101098.75;5015022;28;20592;-72
2022/01/02 07:12:53;;;;;;;13.93;6.47;;;;;;;11.17;100.00;101089.66;5033709;28;20079;-71
2022/01/02 07:15:19;;;;;;;18.52;6.85;;;;;;;11.20;100.00;101078.13;5033374;28;20044;-72
2022/01/02 07:17:44;;;;;;;20.38;6.75;;;;;;;11.28;100.00;101080.16;5032892;28;20052;-73
2022/01/02 07:20:11;;;;;;;16.80;7.38;;;;;;;11.17;100.00;101065.09;5034632;28;20060;-72
2022/01/02 07:22:37;;;;;;;17.60;6.60;;;;;;;11.21;100.00;101068.03;5033801;28;20033;-73
2022/01/02 07:25:04;;;;;;;14.70;7.20;;;;;;;11.15;100.00;101070.03;5031994;28;20048;-72
2022/01/02 07:27:30;;;;;;;20.83;7.30;;;;;;;11.22;100.00;101081.34;5033686;28;20554;-72
2022/01/02 07:29:56;;;;;;;20.00;6.63;;;;;;;11.20;100.00;101080.88;5035327;28;20045;-72
2022/01/02 07:32:21;;;;;;;19.55;6.93;;;;;;;11.15;100.00;101061.06;5039160;28;20036;-71
2022/01/02 07:34:47;;;;;;;15.90;5.40;;;;;;;11.14;100.00;101062.97;5038688;28;20055;-72
2022/01/02 07:37:12;;;;;;;17.13;6.45;;;;;;;11.24;100.00;101065.50;5037701;28;20488;-73
2022/01/02 07:39:38;;;;;;;13.10;6.18;;;;;;;11.23;100.00;101058.44;5035669;28;20056;-72
2022/01/02 07:42:04;;;;;;;15.63;5.97;;;;;;;11.14;100.00;101046.59;5037495;28;20052;-71
2022/01/02 07:44:37;;;;;;;18.02;6.90;;;;;;;11.24;100.00;101040.94;5035383;28;20567;-72
2022/01/02 07:47:04;;;;;;;14.07;5.60;;;;;;;11.18;100.00;101042.13;5017110;28;20540;-71
2022/01/02 07:49:30;;;;;;;16.73;5.72;;;;;;;11.09;100.00;101049.41;5023816;28;20124;-71
2022/01/02 07:51:55;;;;;;;14.27;5.57;;;;;;;11.22;100.00;101045.06;5014363;28;20640;-72
2022/01/02 07:54:20;;;;;;;17.80;6.55;;;;;;;11.23;100.00;101042.03;5034330;28;20481;-72
2022/01/02 07:56:46;;;;;;;14.73;6.30;;;;;;;11.19;100.00;101032.84;5035504;28;20450;-72
2022/01/02 07:59:12;;;;;;;14.40;5.60;;;;;;;11.25;100.00;101039.81;5035735;28;20311;-72
2022/01/02 08:01:38;;;;;;;17.35;5.28;;;;;;;11.22;100.00;101036.88;5036393;28;20049;-72
2022/01/02 08:04:03;;;;;;;18.65;6.22;;;;;;;11.30;100.00;101020.59;5016265;28;20467;-71
2022/01/02 08:06:29;;;;;;;13.70;5.13;;;;;;;11.22;100.00;101009.59;5018078;28;20402;-71
2022/01/02 08:08:54;;;;;;;16.02;6.18;;;;;;;11.29;100.00;101005.34;5019455;28;20072;-73
2022/01/02 08:11:19;;;;;;;13.18;5.75;;;;;;;11.30;100.00;101004.22;5019001;28;20092;-72
2022/01/02 08:13:45;;;;;;;13.13;4.72;;;;;;;11.21;100.00;101019.69;5019379;28;20431;-72
2022/01/02 08:16:11;;;;;;;12.52;5.32;;;;;;;11.32;100.00;101037.50;5019360;28;20203;-71
2022/01/02 08:18:37;;;;;;;13.52;5.38;;;;;;;11.18;100.00;101074.91;5019153;28;20052;-72
2022/01/02 08:21:03;;;;;;;13.05;4.90;;;;;;;11.30;100.00;101077.94;5019357;28;20053;-71
2022/01/02 08:23:28;;;;;;;10.95;4.97;;;;;;;11.27;100.00;101100.38;5017456;28;20121;-72
2022/01/02 08:25:54;;;;;;;14.77;5.20;;;;;;;11.27;100.00;101089.47;5020030;28;20041;-72
2022/01/02 08:28:19;;;;;;;13.02;5.10;;;;;;;11.23;100.00;101076.72;5020183;28;20190;-71
2022/01/02 08:30:47;;;;;;;14.43;4.93;;;;;;;11.09;100.00;101077.50;5019776;28;20038;-73
2022/01/02 08:33:13;;;;;;;15.07;5.05;;;;;;;11.15;100.00;101080.97;5017307;28;20061;-73
2022/01/02 08:35:39;;;;;;;8.13;4.97;;;;;;;11.20;100.00;101078.13;5017338;28;20383;-73
2022/01/02 08:38:04;;;;;;;10.23;5.00;;;;;;;11.23;100.00;101061.16;5016546;28;20052;-72
2022/01/02 08:40:30;;;;;;;10.32;4.55;;;;;;;11.18;100.00;101061.25;5017327;28;20072;-71
2022/01/02 08:42:56;;;;;;;10.82;5.43;;;;;;;11.19;100.00;101059.31;5017986;28;20371;-71
2022/01/02 08:45:22;;;;;;;11.70;4.85;;;;;;;11.17;100.00;101054.19;5016475;28;20036;-71
2022/01/02 08:47:47;;;;;;;11.63;4.85;;;;;;;11.23;100.00;101061.16;5017676;28;20498;-73
2022/01/02 08:50:12;;;;;;;9.82;4.72;;;;;;;11.27;100.00;101064.88;5032171;28;20478;-74
2022/01/02 08:52:38;;;;;;;18.48;5.13;;;;;;;11.21;100.00;101068.84;5029370;28;20044;-72
2022/01/02 08:55:05;;;;;;;11.98;4.72;;;;;;;11.32;100.00;101066.72;5020185;28;20049;-72
2022/01/02 08:57:30;;;;;;;11.70;4.57;;;;;;;11.17;100.00;101064.25;5049176;28;20044;-72
2022/01/02 08:59:56;;;;;;;13.07;5.45;;;;;;;11.26;100.00;101060.56;5035942;28;20081;-71
2022/01/02 09:02:21;;;;;;;9.50;4.28;;;;;;;11.22;100.00;101050.53;5036560;28;20037;-70
2022/01/02 09:04:46;;;;;;;16.88;5.50;;;;;;;11.33;100.00;101021.91;5046206;28;20086;-72
2022/01/02 09:07:12;;;;;;;13.45;5.53;;;;;;;11.32;100.00;101007.47;5040355;28;20052;-72
2022/01/02 09:09:37;;;;;;;15.45;5.53;;;;;;;11.46;100.00;101042.97;5051605;28;20465;-73
2022/01/02 09:12:03;;;;;;;9.50;5.03;;;;;;;11.49;100.00;101052.44;5040118;28;20638;-73
2022/01/02 09:14:29;;;;;;;10.93;4.68;;;;;;;11.62;100.00;101046.16;5054425;28;20040;-72
2022/01/02 09:16:54;;;;;;;8.27;4.10;;;;;;;11.68;100.00;101034.00;5042315;28;20684;-73
2022/01/02 09:19:19;;;;;;;10.45;4.38;;;;;;;11.72;100.00;101040.50;5048275;28;20614;-72
2022/01/02 09:21:45;;;;;;;12.25;5.00;;;;;;;11.63;100.00;101053.22;5037051;28;20025;-73
2022/01/02 09:24:11;;;;;;;13.70;5.15;;;;;;;11.74;100.00;101040.97;5048369;28;20504;-71
2022/01/02 09:26:36;;;;;;;11.00;4.35;;;;;;;11.72;100.00;101045.97;5034157;28;20338;-72
2022/01/02 09:29:01;;;;;;;10.32;4.50;;;;;;;11.65;100.00;101039.28;5045954;28;20047;-71
2022/01/02 09:31:27;;;;;;;8.88;4.45;;;;;;;11.67;100.00;101032.41;5037769;28;20033;-73
2022/01/02 09:33:52;;;;;;;13.35;5.22;;;;;;;11.59;100.00;101027.66;5048996;28;20532;-71
2022/01/02 09:36:18;;;;;;;9.88;5.15;;;;;;;11.70;100.00;101031.78;5040115;28;20449;-71
2022/01/02 09:38:43;;;;;;;12.90;5.30;;;;;;;11.61;100.00;101028.16;5054440;28;20067;-72
2022/01/02 09:41:09;;;;;;;16.10;4.93;;;;;;;11.69;100.00;101030.19;5030088;28;20526;-72
2022/01/02 09:43:34;;;;;;;11.50;4.03;;;;;;;11.74;100.00;101023.78;5050301;28;20448;-73
2022/01/02 09:46:02;;;;;;;8.07;4.53;;;;;;;11.81;100.00;101021.47;5054292;28;20396;-72
2022/01/02 09:48:29;;;;;;;9.35;4.25;;;;;;;11.85;100.00;101038.88;5052348;28;20182;-72
2022/01/02 09:50:56;;;;;;;10.70;4.18;;;;;;;11.85;100.00;101038.03;5046489;28;20528;-72
2022/01/02 09:53:22;;;;;;;9.68;4.30;;;;;;;11.91;100.00;101032.16;5028051;28;20469;-72
2022/01/02 09:55:49;;;;;;;8.05;4.90;;;;;;;11.96;100.00;101023.88;5017191;28;20083;-72
2022/01/02 09:58:14;;;;;;;9.73;3.88;;;;;;;11.89;100.00;101023.47;5025846;28;20493;-74
2022/01/02 10:00:44;;;;;;;8.40;4.80;;;;;;;11.91;100.00;101025.91;5043679;28;20044;-72
2022/01/02 10:03:10;;;;;;;10.60;4.68;;;;;;;11.92;100.00;101027.50;5030557;28;20520;-72
2022/01/02 10:05:50;;;;;;;8.13;4.80;;;;;;;11.90;100.00;101016.09;5036835;28;20075;-72
2022/01/02 10:08:27;;;;;;;10.23;5.18;;;;;;;11.91;100.00;101023.16;5015277;28;20081;-72
2022/01/02 10:11:04;;;;;;;11.50;5.07;;;;;;;11.88;100.00;101010.94;5019788;28;20037;-73
2022/01/02 10:13:38;;;;;;;11.70;4.90;;;;;;;11.83;100.00;101010.19;5023327;28;20064;-73
2022/01/02 10:16:17;;;;;;;11.27;5.32;;;;;;;11.92;100.00;101020.13;5024565;28;20045;-72
2022/01/02 10:18:42;;;;;;;10.27;4.93;;;;;;;11.97;100.00;101014.53;5043581;28;20131;-72
2022/01/02 10:21:10;;;;;;;9.18;4.85;;;;;;;11.96;100.00;101020.31;5039774;28;20056;-72
2022/01/02 10:23:36;;;;;;;10.57;5.38;;;;;;;12.08;100.00;101026.06;5032500;28;20132;-71
2022/01/02 10:26:03;;;;;;;11.57;5.18;;;;;;;12.14;100.00;101034.94;5021533;28;20460;-73
2022/01/02 10:28:35;;;;;;;12.52;5.18;;;;;;;12.23;100.00;101039.34;5032188;28;20040;-72
2022/01/02 10:31:13;;;;;;;12.25;5.13;;;;;;;12.22;100.00;101042.41;5052281;28;20842;-71
2022/01/02 10:33:52;;;;;;;12.13;5.65;;;;;;;12.46;100.00;101042.09;5016180;28;20151;-72
2022/01/02 10:36:45;;;;;;;16.73;6.32;;;;;;;12.47;100.00;101019.09;5025051;28;20484;-72
2022/01/02 10:39:18;;;;;;;13.90;5.32;;;;;;;12.66;100.00;101016.16;5006829;28;20384;-72
2022/01/02 10:41:48;;;;;;;9.00;5.82;;;;;;;12.74;100.00;101017.31;5011511;28;20069;-72
2022/01/02 10:44:33;;;;;;;8.35;5.40;;;;;;;12.88;100.00;101015.28;5029726;28;20825;-72
2022/01/02 10:47:09;;;;;;;9.90;5.65;;;;;;;12.81;100.00;101021.22;5029909;28;20106;-72
2022/01/02 10:49:55;;;;;;;13.35;4.93;;;;;;;12.82;100.00;101027.50;5031370;28;20083;-73
2022/01/02 10:52:33;;;;;;;7.72;4.65;;;;;;;12.75;100.00;101032.63;5026875;28;20040;-72
2022/01/02 10:55:05;;;;;;;11.43;5.20;;;;;;;12.80;100.00;101018.78;5032270;28;20068;-73
2022/01/02 10:57:31;;;;;;;12.40;6.43;;;;;;;12.89;100.00;101005.97;5035642;28;20269;-72
2022/01/02 10:59:58;;;;;;;12.13;5.68;;;;;;;12.91;100.00;101004.53;5029453;28;20075;-73
2022/01/02 11:02:25;;;;;;;12.88;5.30;;;;;;;12.84;100.00;101011.59;5022366;28;20813;-73
2022/01/02 11:05:18;;;;;;;13.55;5.22;;;;;;;12.80;100.00;101005.94;5045818;28;20037;-73
2022/01/02 11:07:49;;;;;;;13.63;6.10;;;;;;;12.84;100.00;100995.97;5028900;28;20148;-73
2022/01/02 11:10:20;;;;;;;14.25;5.35;;;;;;;12.83;100.00;101012.72;5047206;28;20037;-72
2022/01/02 11:12:47;;;;;;;12.82;5.47;;;;;;;12.76;100.00;101017.81;5040338;28;20036;-71
2022/01/02 11:15:18;;;;;;;12.43;6.05;;;;;;;12.71;100.00;101007.00;5037448;28;20175;-72
2022/01/02 11:17:44;;;;;;;13.23;5.97;;;;;;;12.60;100.00;101012.75;5046657;28;20044;-71
2022/01/02 11:20:21;;;;;;;13.68;6.60;;;;;;;12.55;100.00;101023.81;5016635;28;20045;-71
2022/01/02 11:23:17;;;;;;;15.38;5.90;;;;;;;12.58;100.00;101017.72;5027632;28;20068;-73